N583VC KLAF-K3W2
Flight info
| Callsign | N583VC |
|---|---|
| Flight time | N/A |
| Altitude | 23000 |
| Route | DAIFE Q62 WEEVR |
| Aircraft | B60T/L-SDFGRY/C |
Departure
| Time | 2026-04-26 23:06 |
|---|---|
| Airport | Purdue University Airport (KLAF) |
Arrival
| Time | N/A |
|---|---|
| Airport | K3W2 |
| Time | Latitude | Longitude | Altitude | Speed | Heading |
|---|---|---|---|---|---|
| 2026-04-26 22:51 | 40.41536 | -86.93041 | 600 ft | 0 kts | 269° |
| 2026-04-26 23:01 | 40.41537 | -86.93048 | 600 ft | 4 kts | 295° |
| 2026-04-26 23:01 | 40.41528 | -86.93116 | 600 ft | 8 kts | 244° |
| 2026-04-26 23:01 | 40.41495 | -86.93170 | 600 ft | 7 kts | 229° |
| 2026-04-26 23:01 | 40.41444 | -86.93234 | 600 ft | 12 kts | 185° |
| 2026-04-26 23:02 | 40.41358 | -86.93236 | 600 ft | 13 kts | 191° |
| 2026-04-26 23:02 | 40.41294 | -86.93315 | 600 ft | 13 kts | 254° |
| 2026-04-26 23:02 | 40.41307 | -86.93453 | 600 ft | 15 kts | 280° |
| 2026-04-26 23:02 | 40.41324 | -86.93587 | 600 ft | 17 kts | 279° |
| 2026-04-26 23:03 | 40.41347 | -86.93768 | 600 ft | 23 kts | 279° |
| 2026-04-26 23:03 | 40.41374 | -86.93989 | 601 ft | 26 kts | 279° |
| 2026-04-26 23:03 | 40.41401 | -86.94201 | 601 ft | 17 kts | 277° |
| 2026-04-26 23:03 | 40.41374 | -86.94264 | 601 ft | 0 kts | 191° |
| 2026-04-26 23:04 | 40.41334 | -86.94270 | 601 ft | 12 kts | 172° |
| 2026-04-26 23:05 | 40.41288 | -86.94203 | 600 ft | 8 kts | 100° |
| 2026-04-26 23:05 | 40.41287 | -86.94197 | 600 ft | 0 kts | 101° |
| 2026-04-26 23:05 | 40.41283 | -86.94164 | 600 ft | 25 kts | 99° |
| 2026-04-26 23:05 | 40.41246 | -86.93862 | 599 ft | 73 kts | 99° |
| 2026-04-26 23:06 | 40.41139 | -86.93040 | 750 ft | 102 kts | 97° |
| 2026-04-26 23:06 | 40.41027 | -86.92009 | 1110 ft | 118 kts | 97° |
| 2026-04-26 23:06 | 40.41107 | -86.90964 | 1741 ft | 122 kts | 62° |
| 2026-04-26 23:06 | 40.41799 | -86.90271 | 2323 ft | 128 kts | 39° |
| 2026-04-26 23:07 | 40.42552 | -86.89675 | 2915 ft | 125 kts | 37° |
| 2026-04-26 23:07 | 40.43293 | -86.89086 | 3393 ft | 123 kts | 38° |
| 2026-04-26 23:07 | 40.44045 | -86.88511 | 3801 ft | 128 kts | 39° |
| 2026-04-26 23:07 | 40.44813 | -86.87892 | 4206 ft | 132 kts | 37° |
| 2026-04-26 23:08 | 40.45597 | -86.87238 | 4613 ft | 135 kts | 39° |
| 2026-04-26 23:08 | 40.46404 | -86.86582 | 4985 ft | 139 kts | 39° |
| 2026-04-26 23:08 | 40.47237 | -86.85888 | 5347 ft | 144 kts | 37° |
| 2026-04-26 23:08 | 40.48068 | -86.85161 | 5749 ft | 146 kts | 41° |
| 2026-04-26 23:09 | 40.48831 | -86.84281 | 6141 ft | 147 kts | 50° |
| 2026-04-26 23:09 | 40.49570 | -86.83344 | 6554 ft | 149 kts | 50° |
| 2026-04-26 23:09 | 40.50325 | -86.82401 | 6920 ft | 150 kts | 50° |
| 2026-04-26 23:09 | 40.51089 | -86.81449 | 7290 ft | 151 kts | 49° |
| 2026-04-26 23:10 | 40.51857 | -86.80492 | 7677 ft | 152 kts | 49° |
| 2026-04-26 23:10 | 40.52628 | -86.79533 | 8076 ft | 153 kts | 49° |
| 2026-04-26 23:10 | 40.53391 | -86.78583 | 8459 ft | 154 kts | 49° |
| 2026-04-26 23:10 | 40.54171 | -86.77610 | 8851 ft | 156 kts | 49° |
| 2026-04-26 23:11 | 40.54967 | -86.76618 | 9280 ft | 159 kts | 49° |
| 2026-04-26 23:11 | 40.55772 | -86.75614 | 9724 ft | 160 kts | 48° |
| 2026-04-26 23:11 | 40.56583 | -86.74602 | 10150 ft | 161 kts | 48° |
| 2026-04-26 23:11 | 40.57401 | -86.73583 | 10553 ft | 162 kts | 48° |
| 2026-04-26 23:12 | 40.58222 | -86.72558 | 10966 ft | 163 kts | 48° |
| 2026-04-26 23:12 | 40.59056 | -86.71517 | 11286 ft | 171 kts | 48° |
| 2026-04-26 23:12 | 40.59961 | -86.70378 | 11485 ft | 186 kts | 47° |
| 2026-04-26 23:12 | 40.60910 | -86.69193 | 11846 ft | 190 kts | 47° |
| 2026-04-26 23:13 | 40.61873 | -86.67989 | 12194 ft | 192 kts | 47° |
| 2026-04-26 23:13 | 40.62849 | -86.66770 | 12539 ft | 194 kts | 47° |
| 2026-04-26 23:13 | 40.63831 | -86.65541 | 12887 ft | 195 kts | 47° |
| 2026-04-26 23:13 | 40.64805 | -86.64323 | 13227 ft | 196 kts | 47° |
| 2026-04-26 23:14 | 40.65795 | -86.63083 | 13574 ft | 196 kts | 47° |
| 2026-04-26 23:14 | 40.66786 | -86.61842 | 13912 ft | 197 kts | 47° |
| 2026-04-26 23:14 | 40.67781 | -86.60595 | 14225 ft | 197 kts | 47° |
| 2026-04-26 23:14 | 40.68775 | -86.59349 | 14526 ft | 197 kts | 46° |
| 2026-04-26 23:15 | 40.69755 | -86.58120 | 14829 ft | 197 kts | 46° |
| 2026-04-26 23:15 | 40.70751 | -86.56872 | 15139 ft | 198 kts | 46° |
| 2026-04-26 23:15 | 40.71745 | -86.55623 | 15440 ft | 197 kts | 45° |
| 2026-04-26 23:15 | 40.72739 | -86.54374 | 15749 ft | 197 kts | 45° |
| 2026-04-26 23:16 | 40.73731 | -86.53127 | 16058 ft | 197 kts | 45° |
| 2026-04-26 23:16 | 40.74724 | -86.51879 | 16364 ft | 197 kts | 45° |
| 2026-04-26 23:16 | 40.75716 | -86.50633 | 16662 ft | 197 kts | 44° |
| 2026-04-26 23:16 | 40.76709 | -86.49385 | 16952 ft | 198 kts | 44° |
| 2026-04-26 23:17 | 40.77716 | -86.48115 | 17164 ft | 203 kts | 44° |
| 2026-04-26 23:17 | 40.78745 | -86.46819 | 17379 ft | 205 kts | 44° |
| 2026-04-26 23:17 | 40.79782 | -86.45511 | 17617 ft | 207 kts | 44° |
| 2026-04-26 23:17 | 40.80827 | -86.44194 | 17865 ft | 208 kts | 43° |
| 2026-04-26 23:18 | 40.81863 | -86.42887 | 18116 ft | 209 kts | 43° |
| 2026-04-26 23:18 | 40.82920 | -86.41554 | 18364 ft | 210 kts | 43° |
| 2026-04-26 23:18 | 40.83979 | -86.40218 | 18584 ft | 210 kts | 43° |
| 2026-04-26 23:18 | 40.85032 | -86.38888 | 18804 ft | 210 kts | 43° |
| 2026-04-26 23:19 | 40.86090 | -86.37550 | 19021 ft | 210 kts | 43° |
| 2026-04-26 23:19 | 40.87147 | -86.36215 | 19237 ft | 210 kts | 42° |
| 2026-04-26 23:19 | 40.88204 | -86.34879 | 19452 ft | 210 kts | 42° |
| 2026-04-26 23:19 | 40.89260 | -86.33542 | 19676 ft | 210 kts | 42° |
| 2026-04-26 23:20 | 40.90314 | -86.32209 | 19883 ft | 210 kts | 42° |
| 2026-04-26 23:20 | 40.91370 | -86.30872 | 20098 ft | 210 kts | 42° |
| 2026-04-26 23:20 | 40.92407 | -86.29557 | 20312 ft | 209 kts | 42° |
| 2026-04-26 23:20 | 40.93460 | -86.28224 | 20520 ft | 209 kts | 41° |
| 2026-04-26 23:21 | 40.94508 | -86.26895 | 20741 ft | 209 kts | 41° |
| 2026-04-26 23:21 | 40.95560 | -86.25560 | 20951 ft | 209 kts | 41° |
| 2026-04-26 23:21 | 40.96607 | -86.24231 | 21160 ft | 208 kts | 42° |
| 2026-04-26 23:21 | 40.97655 | -86.22899 | 21299 ft | 212 kts | 41° |
| 2026-04-26 23:22 | 40.98738 | -86.21524 | 21372 ft | 219 kts | 41° |
| 2026-04-26 23:22 | 40.99840 | -86.20122 | 21619 ft | 218 kts | 41° |
| 2026-04-26 23:22 | 41.00909 | -86.18757 | 22026 ft | 210 kts | 40° |
| 2026-04-26 23:22 | 41.01959 | -86.17427 | 22344 ft | 208 kts | 39° |
| 2026-04-26 23:23 | 41.03006 | -86.16097 | 22600 ft | 209 kts | 40° |
| 2026-04-26 23:23 | 41.04053 | -86.14766 | 22859 ft | 209 kts | 40° |
| 2026-04-26 23:23 | 41.05105 | -86.13424 | 23046 ft | 214 kts | 40° |
| 2026-04-26 23:23 | 41.06192 | -86.12040 | 23058 ft | 225 kts | 39° |
| 2026-04-26 23:24 | 41.07350 | -86.10563 | 23060 ft | 237 kts | 40° |
| 2026-04-26 23:24 | 41.08563 | -86.09012 | 23060 ft | 247 kts | 40° |
| 2026-04-26 23:24 | 41.09821 | -86.07403 | 23058 ft | 255 kts | 40° |
| 2026-04-26 23:24 | 41.11114 | -86.05749 | 23060 ft | 261 kts | 41° |
| 2026-04-26 23:25 | 41.12436 | -86.04057 | 23057 ft | 266 kts | 40° |
| 2026-04-26 23:25 | 41.13776 | -86.02344 | 23054 ft | 269 kts | 41° |
| 2026-04-26 23:25 | 41.15129 | -86.00611 | 23058 ft | 272 kts | 41° |
| 2026-04-26 23:25 | 41.16496 | -85.98862 | 23067 ft | 274 kts | 40° |
| 2026-04-26 23:26 | 41.17871 | -85.97099 | 23071 ft | 275 kts | 41° |
| 2026-04-26 23:26 | 41.19240 | -85.95345 | 23071 ft | 277 kts | 41° |
| 2026-04-26 23:26 | 41.20626 | -85.93566 | 23071 ft | 278 kts | 41° |
| 2026-04-26 23:26 | 41.22015 | -85.91780 | 23070 ft | 278 kts | 41° |
| 2026-04-26 23:27 | 41.23409 | -85.89991 | 23073 ft | 279 kts | 41° |
| 2026-04-26 23:27 | 41.24806 | -85.88191 | 23074 ft | 279 kts | 42° |
| 2026-04-26 23:27 | 41.25959 | -85.86101 | 23072 ft | 284 kts | 61° |
| 2026-04-26 23:27 | 41.26632 | -85.83654 | 23075 ft | 286 kts | 77° |
| 2026-04-26 23:28 | 41.26785 | -85.81019 | 23073 ft | 287 kts | 91° |
| 2026-04-26 23:28 | 41.26714 | -85.78370 | 23076 ft | 287 kts | 91° |
| 2026-04-26 23:28 | 41.26652 | -85.75718 | 23106 ft | 286 kts | 91° |
| 2026-04-26 23:28 | 41.26590 | -85.73072 | 23106 ft | 287 kts | 91° |
| 2026-04-26 23:29 | 41.26525 | -85.70423 | 23102 ft | 287 kts | 91° |
| 2026-04-26 23:29 | 41.26460 | -85.67768 | 23103 ft | 287 kts | 91° |
| 2026-04-26 23:29 | 41.26395 | -85.65148 | 23104 ft | 287 kts | 91° |
| 2026-04-26 23:29 | 41.26329 | -85.62494 | 23104 ft | 288 kts | 91° |
| 2026-04-26 23:30 | 41.26262 | -85.59832 | 23104 ft | 288 kts | 91° |
| 2026-04-26 23:30 | 41.26194 | -85.57170 | 23109 ft | 289 kts | 91° |
| 2026-04-26 23:30 | 41.26125 | -85.54504 | 23110 ft | 288 kts | 91° |
| 2026-04-26 23:30 | 41.26057 | -85.51838 | 23110 ft | 289 kts | 91° |
| 2026-04-26 23:31 | 41.25988 | -85.49170 | 23121 ft | 289 kts | 92° |
| 2026-04-26 23:31 | 41.25917 | -85.46503 | 23123 ft | 289 kts | 92° |
| 2026-04-26 23:31 | 41.25846 | -85.43834 | 23123 ft | 289 kts | 92° |
| 2026-04-26 23:31 | 41.25775 | -85.41166 | 23121 ft | 289 kts | 92° |
| 2026-04-26 23:32 | 41.25702 | -85.38487 | 23120 ft | 289 kts | 92° |
| 2026-04-26 23:32 | 41.25631 | -85.35851 | 23120 ft | 289 kts | 92° |
| 2026-04-26 23:32 | 41.25558 | -85.33176 | 23120 ft | 289 kts | 92° |
| 2026-04-26 23:32 | 41.25484 | -85.30503 | 23125 ft | 289 kts | 92° |
| 2026-04-26 23:33 | 41.25409 | -85.27834 | 23125 ft | 289 kts | 92° |
| 2026-04-26 23:33 | 41.25333 | -85.25156 | 23128 ft | 289 kts | 92° |
| 2026-04-26 23:33 | 41.25258 | -85.22482 | 23128 ft | 289 kts | 92° |
| 2026-04-26 23:33 | 41.25181 | -85.19806 | 23127 ft | 290 kts | 92° |
| 2026-04-26 23:34 | 41.25103 | -85.17133 | 23131 ft | 290 kts | 92° |
| 2026-04-26 23:34 | 41.25026 | -85.14452 | 23131 ft | 290 kts | 92° |
| 2026-04-26 23:34 | 41.24949 | -85.11814 | 23131 ft | 289 kts | 92° |
| 2026-04-26 23:34 | 41.24869 | -85.09142 | 23131 ft | 289 kts | 92° |
| 2026-04-26 23:35 | 41.24789 | -85.06457 | 23131 ft | 289 kts | 92° |
| 2026-04-26 23:35 | 41.24709 | -85.03785 | 23130 ft | 289 kts | 92° |
| 2026-04-26 23:35 | 41.24628 | -85.01119 | 23131 ft | 289 kts | 92° |
| 2026-04-26 23:35 | 41.24547 | -84.98452 | 23131 ft | 289 kts | 92° |
| 2026-04-26 23:36 | 41.24465 | -84.95785 | 23128 ft | 289 kts | 92° |
| 2026-04-26 23:36 | 41.24383 | -84.93134 | 23129 ft | 289 kts | 92° |
| 2026-04-26 23:36 | 41.24300 | -84.90466 | 23129 ft | 289 kts | 92° |
| 2026-04-26 23:36 | 41.24216 | -84.87800 | 23130 ft | 288 kts | 92° |
| 2026-04-26 23:37 | 41.24132 | -84.85139 | 23131 ft | 288 kts | 92° |
| 2026-04-26 23:37 | 41.24047 | -84.82482 | 23132 ft | 288 kts | 92° |
| 2026-04-26 23:37 | 41.23962 | -84.79818 | 23133 ft | 288 kts | 92° |
| 2026-04-26 23:37 | 41.23876 | -84.77156 | 23134 ft | 288 kts | 92° |
| 2026-04-26 23:38 | 41.23790 | -84.74497 | 23136 ft | 289 kts | 92° |
| 2026-04-26 23:38 | 41.23702 | -84.71828 | 23149 ft | 289 kts | 92° |
| 2026-04-26 23:38 | 41.23614 | -84.69153 | 23151 ft | 290 kts | 92° |
| 2026-04-26 23:38 | 41.23525 | -84.66485 | 22953 ft | 293 kts | 92° |
| 2026-04-26 23:39 | 41.23434 | -84.63789 | 22705 ft | 290 kts | 92° |
| 2026-04-26 23:39 | 41.23353 | -84.61126 | 22456 ft | 287 kts | 92° |
| 2026-04-26 23:39 | 41.23291 | -84.58481 | 22208 ft | 285 kts | 92° |
| 2026-04-26 23:39 | 41.23224 | -84.55843 | 21965 ft | 286 kts | 92° |
| 2026-04-26 23:40 | 41.23151 | -84.53203 | 21730 ft | 287 kts | 92° |
| 2026-04-26 23:40 | 41.23078 | -84.50551 | 21501 ft | 287 kts | 92° |
| 2026-04-26 23:40 | 41.23005 | -84.47902 | 21276 ft | 287 kts | 92° |
| 2026-04-26 23:40 | 41.22931 | -84.45249 | 21055 ft | 287 kts | 92° |
| 2026-04-26 23:41 | 41.22857 | -84.42603 | 20836 ft | 286 kts | 93° |
| 2026-04-26 23:41 | 41.22782 | -84.39962 | 20619 ft | 285 kts | 93° |
| 2026-04-26 23:41 | 41.22708 | -84.37333 | 20404 ft | 284 kts | 93° |
| 2026-04-26 23:41 | 41.22634 | -84.34741 | 20197 ft | 284 kts | 93° |
| 2026-04-26 23:42 | 41.22558 | -84.32129 | 19934 ft | 282 kts | 93° |
| 2026-04-26 23:42 | 41.22407 | -84.26969 | 19406 ft | 279 kts | 93° |
| 2026-04-26 23:42 | 41.22331 | -84.24387 | 19153 ft | 280 kts | 93° |
| 2026-04-26 23:43 | 41.22400 | -84.21811 | 18892 ft | 280 kts | 79° |
| 2026-04-26 23:43 | 41.22981 | -84.19356 | 18642 ft | 278 kts | 67° |
| 2026-04-26 23:43 | 41.23720 | -84.16990 | 18390 ft | 277 kts | 67° |
| 2026-04-26 23:43 | 41.24443 | -84.14619 | 18108 ft | 276 kts | 67° |
| 2026-04-26 23:44 | 41.25151 | -84.12289 | 17836 ft | 274 kts | 67° |
| 2026-04-26 23:44 | 41.25861 | -84.09956 | 17558 ft | 271 kts | 67° |
| 2026-04-26 23:44 | 41.26570 | -84.07628 | 17288 ft | 272 kts | 67° |
| 2026-04-26 23:44 | 41.27280 | -84.05298 | 17026 ft | 272 kts | 67° |
| 2026-04-26 23:45 | 41.27986 | -84.02970 | 16769 ft | 271 kts | 68° |
| 2026-04-26 23:45 | 41.28690 | -84.00652 | 16512 ft | 270 kts | 68° |
| 2026-04-26 23:45 | 41.29387 | -83.98356 | 16258 ft | 266 kts | 68° |
| 2026-04-26 23:45 | 41.30075 | -83.96088 | 16003 ft | 263 kts | 68° |
| 2026-04-26 23:46 | 41.30756 | -83.93838 | 15750 ft | 261 kts | 68° |
| 2026-04-26 23:46 | 41.31433 | -83.91602 | 15499 ft | 260 kts | 68° |
| 2026-04-26 23:46 | 41.32105 | -83.89377 | 15251 ft | 258 kts | 67° |
| 2026-04-26 23:46 | 41.32773 | -83.87165 | 15008 ft | 257 kts | 67° |
| 2026-04-26 23:47 | 41.33438 | -83.84965 | 14770 ft | 256 kts | 67° |
| 2026-04-26 23:47 | 41.34099 | -83.82774 | 14532 ft | 255 kts | 67° |
| 2026-04-26 23:47 | 41.34757 | -83.80585 | 14301 ft | 254 kts | 67° |
| 2026-04-26 23:47 | 41.35409 | -83.78416 | 14073 ft | 250 kts | 67° |
| 2026-04-26 23:48 | 41.36046 | -83.76305 | 13813 ft | 251 kts | 67° |
| 2026-04-26 23:48 | 41.36701 | -83.74129 | 13583 ft | 253 kts | 68° |
| 2026-04-26 23:48 | 41.37351 | -83.71964 | 13336 ft | 251 kts | 67° |
| 2026-04-26 23:48 | 41.38000 | -83.69807 | 13087 ft | 251 kts | 67° |
| 2026-04-26 23:49 | 41.38646 | -83.67656 | 12848 ft | 250 kts | 68° |
| 2026-04-26 23:49 | 41.39288 | -83.65509 | 12606 ft | 250 kts | 67° |
| 2026-04-26 23:49 | 41.39931 | -83.63356 | 12360 ft | 250 kts | 67° |
| 2026-04-26 23:49 | 41.40509 | -83.61175 | 12134 ft | 249 kts | 73° |
| 2026-04-26 23:50 | 41.40957 | -83.58938 | 11905 ft | 250 kts | 75° |
| 2026-04-26 23:50 | 41.41427 | -83.56718 | 11677 ft | 247 kts | 72° |
| 2026-04-26 23:50 | 41.41923 | -83.54560 | 11441 ft | 241 kts | 72° |
| 2026-04-26 23:50 | 41.42405 | -83.52466 | 11216 ft | 239 kts | 71° |
| 2026-04-26 23:51 | 41.42880 | -83.50335 | 10990 ft | 239 kts | 72° |
| 2026-04-26 23:51 | 41.43344 | -83.48232 | 10766 ft | 235 kts | 72° |
| 2026-04-26 23:51 | 41.43818 | -83.46155 | 10539 ft | 233 kts | 71° |
| 2026-04-26 23:51 | 41.44283 | -83.44085 | 10274 ft | 234 kts | 72° |
| 2026-04-26 23:52 | 41.44745 | -83.42003 | 10010 ft | 235 kts | 71° |
| 2026-04-26 23:52 | 41.45210 | -83.39912 | 9718 ft | 235 kts | 71° |
| 2026-04-26 23:52 | 41.45679 | -83.37825 | 9435 ft | 234 kts | 72° |
| 2026-04-26 23:52 | 41.46145 | -83.35750 | 9156 ft | 233 kts | 71° |
| 2026-04-26 23:53 | 41.46600 | -83.33685 | 8882 ft | 232 kts | 71° |
| 2026-04-26 23:53 | 41.47054 | -83.31658 | 8610 ft | 225 kts | 71° |
| 2026-04-26 23:53 | 41.47496 | -83.29688 | 8327 ft | 220 kts | 71° |
| 2026-04-26 23:53 | 41.47927 | -83.27743 | 8045 ft | 217 kts | 71° |
| 2026-04-26 23:54 | 41.48350 | -83.25843 | 7779 ft | 215 kts | 71° |
| 2026-04-26 23:54 | 41.48773 | -83.23939 | 7504 ft | 213 kts | 71° |
| 2026-04-26 23:54 | 41.49191 | -83.22051 | 7241 ft | 212 kts | 71° |
| 2026-04-26 23:54 | 41.49609 | -83.20172 | 6983 ft | 210 kts | 71° |
| 2026-04-26 23:55 | 41.50020 | -83.18306 | 6720 ft | 209 kts | 72° |
| 2026-04-26 23:55 | 41.50431 | -83.16453 | 6458 ft | 207 kts | 71° |
| 2026-04-26 23:55 | 41.50836 | -83.14621 | 6177 ft | 204 kts | 71° |
| 2026-04-26 23:55 | 41.51231 | -83.12830 | 5917 ft | 198 kts | 72° |
| 2026-04-26 23:56 | 41.51616 | -83.11086 | 5653 ft | 196 kts | 72° |
| 2026-04-26 23:56 | 41.52000 | -83.09348 | 5386 ft | 194 kts | 72° |
| 2026-04-26 23:56 | 41.52382 | -83.07617 | 5135 ft | 195 kts | 73° |
| 2026-04-26 23:56 | 41.52766 | -83.05874 | 4886 ft | 196 kts | 73° |
| 2026-04-26 23:57 | 41.53148 | -83.04141 | 4649 ft | 196 kts | 73° |
| 2026-04-26 23:57 | 41.53532 | -83.02397 | 4403 ft | 194 kts | 74° |
| 2026-04-26 23:57 | 41.53908 | -83.00670 | 4158 ft | 193 kts | 74° |
| 2026-04-26 23:57 | 41.54286 | -82.98953 | 3905 ft | 192 kts | 75° |
| 2026-04-26 23:58 | 41.54660 | -82.97250 | 3664 ft | 191 kts | 75° |
| 2026-04-26 23:58 | 41.55031 | -82.95557 | 3424 ft | 189 kts | 75° |
| 2026-04-26 23:58 | 41.55399 | -82.93874 | 3179 ft | 189 kts | 75° |
| 2026-04-26 23:58 | 41.55763 | -82.92209 | 2992 ft | 187 kts | 76° |
| 2026-04-26 23:59 | 41.56119 | -82.90586 | 2980 ft | 178 kts | 75° |
| 2026-04-26 23:59 | 41.56634 | -82.89149 | 2975 ft | 165 kts | 54° |
| 2026-04-26 23:59 | 41.57475 | -82.88174 | 2976 ft | 156 kts | 37° |
| 2026-04-26 23:59 | 41.58320 | -82.87468 | 2969 ft | 129 kts | 38° |
| 2026-04-27 00:00 | 41.59016 | -82.86873 | 2807 ft | 119 kts | 40° |
| 2026-04-27 00:00 | 41.59732 | -82.86254 | 2400 ft | 125 kts | 35° |
| 2026-04-27 00:00 | 41.60232 | -82.85867 | 2087 ft | 125 kts | 37° |
| 2026-04-27 00:00 | 41.60956 | -82.85254 | 1704 ft | 118 kts | 39° |
| 2026-04-27 00:01 | 41.61768 | -82.84545 | 1246 ft | 102 kts | 40° |
| 2026-04-27 00:01 | 41.62329 | -82.83994 | 1000 ft | 100 kts | 36° |
| 2026-04-27 00:01 | 41.62893 | -82.83501 | 789 ft | 94 kts | 39° |
| 2026-04-27 00:01 | 41.63408 | -82.83056 | 612 ft | 80 kts | 37° |
| 2026-04-27 00:02 | 41.63684 | -82.82820 | 595 ft | 51 kts | 33° |
| 2026-04-27 00:02 | 41.63890 | -82.82640 | 596 ft | 25 kts | 32° |
| 2026-04-27 00:02 | 41.63989 | -82.82576 | 599 ft | 14 kts | 342° |
| 2026-04-27 00:02 | 41.63952 | -82.82654 | 597 ft | 18 kts | 216° |
| 2026-04-27 00:03 | 41.63844 | -82.82767 | 594 ft | 17 kts | 218° |
| 2026-04-27 00:03 | 41.63784 | -82.82827 | 595 ft | 10 kts | 238° |
| 2026-04-27 00:03 | 41.63774 | -82.82858 | 595 ft | 0 kts | 173° |